createdAt,value
2022-12-18T00:01:22.142Z,37.62
2022-12-18T00:03:48.099Z,37.79
2022-12-18T00:06:13.990Z,37.75
2022-12-18T00:08:39.903Z,37.77
2022-12-18T00:11:07.105Z,37.63
2022-12-18T00:13:32.827Z,37.82
2022-12-18T00:16:03.017Z,37.58
2022-12-18T00:18:28.613Z,37.65
2022-12-18T00:20:54.149Z,37.69
2022-12-18T00:23:19.708Z,37.69
2022-12-18T00:25:45.251Z,37.73
2022-12-18T00:28:10.836Z,37.65
2022-12-18T00:30:36.378Z,37.68
2022-12-18T00:33:01.927Z,37.61
2022-12-18T00:35:27.543Z,37.58
2022-12-18T00:37:53.094Z,37.65
2022-12-18T00:40:18.635Z,37.66
2022-12-18T00:42:59.158Z,37.69
2022-12-18T00:45:27.506Z,37.61
2022-12-18T00:47:53.225Z,37.73
2022-12-18T00:50:19.096Z,37.68
2022-12-18T00:52:44.652Z,37.68
2022-12-18T00:55:10.303Z,37.58
2022-12-18T00:57:35.851Z,37.57
2022-12-18T01:00:01.501Z,37.75
2022-12-18T01:02:27.287Z,37.65
2022-12-18T01:04:53.407Z,37.63
2022-12-18T01:07:18.958Z,37.70
2022-12-18T01:09:44.602Z,37.84
2022-12-18T01:12:10.154Z,37.64
2022-12-18T01:14:36.312Z,37.75
2022-12-18T01:17:03.824Z,37.66
2022-12-18T01:19:29.368Z,37.64
2022-12-18T01:21:54.909Z,37.70
2022-12-18T01:24:20.454Z,37.68
2022-12-18T01:26:46.045Z,37.68
2022-12-18T01:29:11.598Z,37.70
2022-12-18T01:31:37.187Z,37.63
2022-12-18T01:34:03.239Z,37.61
2022-12-18T01:36:29.718Z,37.66
2022-12-18T01:38:55.470Z,37.83
2022-12-18T01:41:22.113Z,37.65
2022-12-18T01:43:50.323Z,37.70
2022-12-18T01:46:16.709Z,37.79
2022-12-18T01:48:42.310Z,37.77
2022-12-18T01:51:08.238Z,37.74
2022-12-18T01:53:33.789Z,37.76
2022-12-18T01:55:59.416Z,37.67
2022-12-18T01:58:41.823Z,37.75
2022-12-18T02:01:07.439Z,37.68
2022-12-18T02:03:33.097Z,37.65
2022-12-18T02:06:01.430Z,37.76
2022-12-18T02:08:34.779Z,37.86
2022-12-18T02:11:10.714Z,37.80
2022-12-18T02:13:56.141Z,37.82
2022-12-18T02:16:25.778Z,37.67
2022-12-18T02:18:53.261Z,37.86
2022-12-18T02:21:23.790Z,37.74
2022-12-18T02:23:57.110Z,37.66
2022-12-18T02:26:27.678Z,37.72
2022-12-18T02:28:54.234Z,37.80
2022-12-18T02:31:22.098Z,37.82
2022-12-18T02:33:47.650Z,37.76
2022-12-18T02:36:13.190Z,37.63
2022-12-18T02:38:38.740Z,37.92
2022-12-18T02:41:04.278Z,37.73
2022-12-18T02:43:29.850Z,37.77
2022-12-18T02:45:56.728Z,37.74
2022-12-18T02:48:23.515Z,37.83
2022-12-18T02:51:07.439Z,37.86
2022-12-18T02:53:42.468Z,37.75
2022-12-18T02:56:16.686Z,37.65
2022-12-18T02:58:46.490Z,37.74
2022-12-18T03:01:16.107Z,37.79
2022-12-18T03:03:59.307Z,37.79
2022-12-18T03:06:40.591Z,37.78
2022-12-18T03:09:08.027Z,37.77
2022-12-18T03:11:54.078Z,37.71
2022-12-18T03:14:19.753Z,37.77
2022-12-18T03:16:45.345Z,37.72
2022-12-18T03:19:12.084Z,37.76
2022-12-18T03:21:40.484Z,37.78
2022-12-18T03:24:06.699Z,37.70
2022-12-18T03:26:32.529Z,37.77
2022-12-18T03:29:00.150Z,37.80
2022-12-18T03:31:26.442Z,37.71
2022-12-18T03:33:53.074Z,37.83
2022-12-18T03:36:18.626Z,37.78
2022-12-18T03:38:44.178Z,37.81
2022-12-18T03:41:29.602Z,37.77
2022-12-18T03:44:01.272Z,37.85
2022-12-18T03:46:28.267Z,37.75
2022-12-18T03:48:57.517Z,37.75
2022-12-18T03:51:34.297Z,37.71
2022-12-18T03:54:00.573Z,37.85
2022-12-18T03:56:27.167Z,37.80
2022-12-18T03:58:52.715Z,37.78
2022-12-18T04:01:18.373Z,37.80
2022-12-18T04:03:44.695Z,37.79
2022-12-18T04:06:10.483Z,37.77
2022-12-18T04:08:36.033Z,37.87
2022-12-18T04:11:01.842Z,37.66
2022-12-18T04:13:28.465Z,37.77
2022-12-18T04:15:54.053Z,37.75
2022-12-18T04:18:19.664Z,38.23
2022-12-18T04:20:45.225Z,37.81
2022-12-18T04:23:10.766Z,37.75
2022-12-18T04:25:36.365Z,37.79
2022-12-18T04:28:01.910Z,37.81
2022-12-18T04:30:27.468Z,37.81
2022-12-18T04:32:53.073Z,37.87
2022-12-18T04:35:18.637Z,37.70
2022-12-18T04:37:44.180Z,37.77
2022-12-18T04:40:10.009Z,37.79
2022-12-18T04:42:35.650Z,37.76
2022-12-18T04:45:01.273Z,37.75
2022-12-18T04:47:26.814Z,37.75
2022-12-18T04:49:52.384Z,37.76
2022-12-18T04:52:17.970Z,37.80
2022-12-18T04:54:43.517Z,37.72
2022-12-18T04:57:09.052Z,37.67
2022-12-18T04:59:34.619Z,37.69
2022-12-18T05:02:00.331Z,37.83
2022-12-18T05:04:25.935Z,37.75
2022-12-18T05:06:51.481Z,37.71
2022-12-18T05:09:17.107Z,37.77
2022-12-18T05:11:42.827Z,37.69
2022-12-18T05:14:08.383Z,37.71
2022-12-18T05:16:34.209Z,37.70
2022-12-18T05:18:59.825Z,37.80
2022-12-18T05:21:25.487Z,37.58
2022-12-18T05:23:51.028Z,37.70
2022-12-18T05:26:17.374Z,37.79
2022-12-18T05:28:42.914Z,37.73
2022-12-18T05:31:08.499Z,37.72
2022-12-18T05:33:34.434Z,37.72
2022-12-18T05:36:00.651Z,37.65
2022-12-18T05:38:26.486Z,37.74
2022-12-18T05:40:52.110Z,37.80
2022-12-18T05:43:21.140Z,37.67
2022-12-18T05:45:47.469Z,37.76
2022-12-18T05:48:13.011Z,37.68
2022-12-18T05:50:39.076Z,37.62
2022-12-18T05:53:04.642Z,37.72
2022-12-18T05:55:33.170Z,37.74
2022-12-18T05:57:59.198Z,37.81
2022-12-18T06:00:24.745Z,37.74
2022-12-18T06:02:50.393Z,37.72
2022-12-18T06:05:16.038Z,37.74
2022-12-18T06:07:41.577Z,37.80
2022-12-18T06:10:07.215Z,37.60
2022-12-18T06:12:33.701Z,37.60
2022-12-18T06:14:59.515Z,37.58
2022-12-18T06:17:29.054Z,37.69
2022-12-18T06:19:54.599Z,37.64
2022-12-18T06:22:20.150Z,37.75
2022-12-18T06:24:45.699Z,37.69
2022-12-18T06:27:11.542Z,37.69
2022-12-18T06:29:37.137Z,37.99
2022-12-18T06:32:02.741Z,37.73
2022-12-18T06:34:31.262Z,37.87
2022-12-18T06:36:56.877Z,37.69
2022-12-18T06:39:22.424Z,37.65
2022-12-18T06:41:47.964Z,37.77
2022-12-18T06:44:13.510Z,37.64
2022-12-18T06:46:39.246Z,37.72
2022-12-18T06:49:04.792Z,37.80
2022-12-18T06:51:30.340Z,37.64
2022-12-18T06:53:55.884Z,37.84
2022-12-18T06:56:21.470Z,37.76
2022-12-18T06:58:47.031Z,37.77
2022-12-18T07:01:12.869Z,37.92
2022-12-18T07:03:39.516Z,37.79
2022-12-18T07:06:05.507Z,37.73
2022-12-18T07:08:31.269Z,37.75
2022-12-18T07:10:56.807Z,37.79
2022-12-18T07:13:22.475Z,37.62
2022-12-18T07:15:48.015Z,37.83
2022-12-18T07:18:13.566Z,37.82
2022-12-18T07:20:39.231Z,37.63
2022-12-18T07:23:05.363Z,37.61
2022-12-18T07:25:37.897Z,37.76
2022-12-18T07:28:03.655Z,37.66
2022-12-18T07:30:29.231Z,37.87
2022-12-18T07:32:54.808Z,37.72
2022-12-18T07:35:24.756Z,37.74
2022-12-18T07:37:50.818Z,37.62
2022-12-18T07:40:16.361Z,37.61
2022-12-18T07:42:41.941Z,37.92
2022-12-18T07:45:07.614Z,37.76
2022-12-18T07:47:34.818Z,37.67
2022-12-18T07:50:00.359Z,37.65
2022-12-18T07:52:26.429Z,37.62
2022-12-18T07:54:52.073Z,37.69
2022-12-18T07:57:41.835Z,37.92
2022-12-18T08:00:03.784Z,37.65
2022-12-18T08:02:30.842Z,37.89
2022-12-18T08:04:56.458Z,37.71
2022-12-18T08:07:22.015Z,37.72
2022-12-18T08:09:47.558Z,37.75
2022-12-18T08:12:13.109Z,37.72
2022-12-18T08:14:38.651Z,37.77
2022-12-18T08:17:04.254Z,37.68
2022-12-18T08:19:29.858Z,37.74
2022-12-18T08:21:55.412Z,37.57
2022-12-18T08:24:20.949Z,37.89
2022-12-18T08:27:01.070Z,37.76
2022-12-18T08:29:32.258Z,37.80
2022-12-18T08:31:57.861Z,37.77
2022-12-18T08:34:23.526Z,37.83
2022-12-18T08:36:49.074Z,37.71
2022-12-18T08:39:14.629Z,37.88
2022-12-18T08:41:40.175Z,37.75
2022-12-18T08:44:27.200Z,37.75
2022-12-18T08:46:52.743Z,37.87
2022-12-18T08:49:18.291Z,37.77
2022-12-18T08:51:43.831Z,37.77
2022-12-18T08:54:11.100Z,37.89
2022-12-18T08:56:36.639Z,37.74
2022-12-18T08:59:02.421Z,37.78
2022-12-18T09:01:28.534Z,37.76
2022-12-18T09:03:54.210Z,37.85
2022-12-18T09:06:20.615Z,37.86
2022-12-18T09:08:46.179Z,37.96
2022-12-18T09:11:13.455Z,37.73
2022-12-18T09:13:39.389Z,37.83
2022-12-18T09:16:05.231Z,38.10
2022-12-18T09:18:30.782Z,37.73
2022-12-18T09:20:56.324Z,37.87
2022-12-18T09:23:21.875Z,37.73
2022-12-18T09:25:47.657Z,37.69
2022-12-18T09:28:13.607Z,37.92
2022-12-18T09:30:39.959Z,37.83
2022-12-18T09:33:05.556Z,37.89
2022-12-18T09:35:32.535Z,37.87
2022-12-18T09:37:58.679Z,37.75
2022-12-18T09:40:25.526Z,38.00
2022-12-18T09:42:52.613Z,37.89
2022-12-18T09:45:18.208Z,37.85
2022-12-18T09:47:43.811Z,38.04
2022-12-18T09:50:27.592Z,37.96
2022-12-18T09:52:53.790Z,37.92
2022-12-18T09:55:24.813Z,37.94
2022-12-18T09:57:52.378Z,37.85
2022-12-18T10:00:19.469Z,37.91
2022-12-18T10:02:45.160Z,37.92
2022-12-18T10:05:12.495Z,37.92
2022-12-18T10:07:44.246Z,37.96
2022-12-18T10:10:14.014Z,37.86
2022-12-18T10:12:42.758Z,37.95
2022-12-18T10:15:13.347Z,38.09
2022-12-18T10:17:44.458Z,38.28
2022-12-18T10:20:11.915Z,38.00
2022-12-18T10:22:56.633Z,38.00
2022-12-18T10:25:23.272Z,38.00
2022-12-18T10:27:48.952Z,38.02
2022-12-18T10:30:15.930Z,38.03
2022-12-18T10:32:41.478Z,38.09
2022-12-18T10:35:09.750Z,37.86
2022-12-18T10:37:35.309Z,37.82
2022-12-18T10:40:09.157Z,38.02
2022-12-18T10:42:34.718Z,37.96
2022-12-18T10:45:03.477Z,38.04
2022-12-18T10:47:29.031Z,38.00
2022-12-18T10:49:55.601Z,38.08
2022-12-18T10:52:21.845Z,37.95
2022-12-18T10:54:48.899Z,38.13
2022-12-18T10:57:15.138Z,38.08
2022-12-18T10:59:49.882Z,37.99
2022-12-18T11:02:35.611Z,38.05
2022-12-18T11:05:01.602Z,38.09
2022-12-18T11:07:32.157Z,38.26
2022-12-18T11:10:01.018Z,38.13
2022-12-18T11:12:26.571Z,38.12
2022-12-18T11:14:52.563Z,38.20
2022-12-18T11:17:26.907Z,38.23
2022-12-18T11:19:53.475Z,38.21
2022-12-18T11:22:21.084Z,37.93
2022-12-18T11:25:29.497Z,37.91
2022-12-18T11:27:42.245Z,38.11
2022-12-18T11:30:24.092Z,38.10
2022-12-18T11:32:51.223Z,38.04
2022-12-18T11:35:18.098Z,38.19
2022-12-18T11:37:43.864Z,37.99
2022-12-18T11:40:29.294Z,38.10
2022-12-18T11:42:56.370Z,38.08
2022-12-18T11:45:25.013Z,38.06
2022-12-18T11:48:10.441Z,38.26
2022-12-18T11:53:11.231Z,38.08
2022-12-18T11:55:48.041Z,38.00
2022-12-18T11:58:33.489Z,38.12
2022-12-18T12:01:18.974Z,37.97
2022-12-18T12:03:56.401Z,37.95
2022-12-18T12:09:16.309Z,37.96
2022-12-18T12:12:01.742Z,37.99
2022-12-18T12:14:38.669Z,37.94
2022-12-18T12:17:06.376Z,38.21
2022-12-18T12:19:38.812Z,38.12
2022-12-18T12:22:10.057Z,38.23
2022-12-18T12:24:38.454Z,38.32
2022-12-18T12:27:15.553Z,38.16
2022-12-18T12:29:45.049Z,38.16
2022-12-18T12:32:32.091Z,38.02
2022-12-18T12:35:09.255Z,38.21
2022-12-18T12:37:39.907Z,38.10
2022-12-18T12:40:26.731Z,38.32
2022-12-18T12:43:14.185Z,38.10
2022-12-18T12:45:56.196Z,38.05
2022-12-18T12:48:35.554Z,38.13
2022-12-18T12:51:02.171Z,38.00
2022-12-18T12:53:31.233Z,38.37
2022-12-18T12:55:56.771Z,38.16
2022-12-18T12:58:32.375Z,38.04
2022-12-18T13:01:08.927Z,38.22
2022-12-18T13:03:43.992Z,38.21
2022-12-18T13:06:13.154Z,38.05
2022-12-18T13:08:56.047Z,38.27
2022-12-18T13:12:01.646Z,38.20
2022-12-18T13:14:29.216Z,38.15
2022-12-18T13:17:14.647Z,38.14
2022-12-18T13:19:40.816Z,38.10
2022-12-18T13:22:12.979Z,38.07
2022-12-18T13:24:39.114Z,38.28
2022-12-18T13:27:24.570Z,38.14
2022-12-18T13:29:51.974Z,38.17
2022-12-18T13:32:22.430Z,38.26
2022-12-18T13:34:49.597Z,38.14
2022-12-18T13:37:35.122Z,38.37
2022-12-18T13:40:00.719Z,38.15
2022-12-18T13:45:24.532Z,38.34
2022-12-18T13:47:50.121Z,38.14
2022-12-18T13:50:20.592Z,38.01
2022-12-18T13:52:46.496Z,38.15
2022-12-18T13:55:15.335Z,38.21
2022-12-18T13:57:41.318Z,38.24
2022-12-18T14:02:57.284Z,38.23
2022-12-18T14:05:24.465Z,38.11
2022-12-18T14:07:51.547Z,38.22
2022-12-18T14:10:41.816Z,38.21
2022-12-18T14:13:05.433Z,38.28
2022-12-18T14:15:33.459Z,38.34
2022-12-18T14:18:00.035Z,38.32
2022-12-18T14:20:26.366Z,38.27
2022-12-18T14:22:52.142Z,38.12
2022-12-18T14:25:19.043Z,38.58
2022-12-18T14:27:45.598Z,38.40
2022-12-18T14:30:31.126Z,38.13
2022-12-18T14:33:00.493Z,38.30
2022-12-18T14:35:26.035Z,38.23
2022-12-18T14:37:51.635Z,38.24
2022-12-18T14:40:17.188Z,38.11
2022-12-18T14:42:42.745Z,38.18
2022-12-18T14:45:28.235Z,38.37
2022-12-18T14:47:53.895Z,38.26
2022-12-18T14:50:19.463Z,38.25
2022-12-18T14:52:45.014Z,38.27
2022-12-18T14:55:15.206Z,38.12
2022-12-18T14:57:43.539Z,38.41
2022-12-18T15:00:16.939Z,38.37
2022-12-18T15:02:42.667Z,38.39
2022-12-18T15:05:28.193Z,38.06
2022-12-18T15:07:54.497Z,38.41
2022-12-18T15:10:20.992Z,38.47
2022-12-18T15:12:48.634Z,38.24
2022-12-18T15:15:37.232Z,38.37
2022-12-18T15:18:04.758Z,38.29
2022-12-18T15:20:30.654Z,38.28
2022-12-18T15:22:56.212Z,38.28
2022-12-18T15:25:26.007Z,38.25
2022-12-18T15:27:51.563Z,38.34
2022-12-18T15:30:18.458Z,38.41
2022-12-18T15:32:44.901Z,38.24
2022-12-18T15:35:14.127Z,38.24
2022-12-18T15:37:39.669Z,38.10
2022-12-18T15:40:06.392Z,38.24
2022-12-18T15:42:51.844Z,38.25
2022-12-18T15:45:17.394Z,38.60
2022-12-18T15:47:44.587Z,38.24
2022-12-18T15:50:10.369Z,38.36
2022-12-18T15:52:39.593Z,38.33
2022-12-18T15:55:25.877Z,38.21
2022-12-18T15:57:51.431Z,38.36
2022-12-18T16:00:17.108Z,38.26
2022-12-18T16:02:42.899Z,38.24
2022-12-18T16:05:11.607Z,38.05
2022-12-18T16:07:37.158Z,38.29
2022-12-18T16:10:02.947Z,38.18
2022-12-18T16:12:28.691Z,38.30
2022-12-18T16:14:54.264Z,38.24
2022-12-18T16:17:19.823Z,38.23
2022-12-18T16:19:45.663Z,38.01
2022-12-18T16:22:28.042Z,38.39
2022-12-18T16:24:53.725Z,38.46
2022-12-18T16:27:19.396Z,38.40
2022-12-18T16:29:44.964Z,38.15
2022-12-18T16:32:12.444Z,38.28
2022-12-18T16:34:37.998Z,38.50
2022-12-18T16:37:06.148Z,38.38
2022-12-18T16:39:33.403Z,38.27
2022-12-18T16:41:59.142Z,38.44
2022-12-18T16:44:26.542Z,38.43
2022-12-18T16:46:52.130Z,38.41
2022-12-18T16:49:17.938Z,38.33
2022-12-18T16:51:43.890Z,38.25
2022-12-18T16:54:11.764Z,38.14
2022-12-18T16:56:41.983Z,38.31
2022-12-18T16:59:09.178Z,38.34
2022-12-18T17:01:34.837Z,38.41
2022-12-18T17:04:02.239Z,38.46
2022-12-18T17:06:28.404Z,38.31
2022-12-18T17:08:54.594Z,38.26
2022-12-18T17:11:20.350Z,38.21
2022-12-18T17:13:45.902Z,38.41
2022-12-18T17:16:11.454Z,38.30
2022-12-18T17:18:37.037Z,38.33
2022-12-18T17:21:03.327Z,38.22
2022-12-18T17:23:29.326Z,38.22
2022-12-18T17:25:56.061Z,38.16
2022-12-18T17:28:21.967Z,38.31
2022-12-18T17:30:47.505Z,38.42
2022-12-18T17:33:13.057Z,38.21
2022-12-18T17:35:39.722Z,38.20
2022-12-18T17:38:05.270Z,38.27
2022-12-18T17:40:32.185Z,38.39
2022-12-18T17:42:57.737Z,38.17
2022-12-18T17:45:23.278Z,38.31
2022-12-18T17:47:48.830Z,38.17
2022-12-18T17:50:14.385Z,38.41
2022-12-18T17:52:39.947Z,38.26
2022-12-18T17:55:06.162Z,38.33
2022-12-18T17:57:31.708Z,38.48
2022-12-18T17:59:57.270Z,38.14
2022-12-18T18:02:22.972Z,38.16
2022-12-18T18:04:48.674Z,38.32
2022-12-18T18:07:14.266Z,38.43
2022-12-18T18:09:39.838Z,38.31
2022-12-18T18:12:25.354Z,38.48
2022-12-18T18:14:51.085Z,38.22
2022-12-18T18:17:17.026Z,38.39
2022-12-18T18:19:43.510Z,38.29
2022-12-18T18:22:12.341Z,38.39
2022-12-18T18:24:38.823Z,38.30
2022-12-18T18:27:04.449Z,38.39
2022-12-18T18:29:30.030Z,38.26
2022-12-18T18:31:55.633Z,38.19
2022-12-18T18:34:23.173Z,38.28
2022-12-18T18:36:48.726Z,38.43
2022-12-18T18:39:14.564Z,38.32
2022-12-18T18:41:40.252Z,38.36
2022-12-18T18:44:06.134Z,38.31
2022-12-18T18:46:31.932Z,38.29
2022-12-18T18:48:57.491Z,38.21
2022-12-18T18:51:23.128Z,38.53
2022-12-18T18:53:49.614Z,38.42
2022-12-18T18:59:01.244Z,38.42
2022-12-18T19:01:26.852Z,38.51
2022-12-18T19:03:52.725Z,38.40
2022-12-18T19:06:19.244Z,38.19
2022-12-18T19:08:45.804Z,38.44
2022-12-18T19:11:36.104Z,38.29
2022-12-18T19:14:04.053Z,38.23
2022-12-18T19:16:29.676Z,38.50
2022-12-18T19:18:59.991Z,38.44
2022-12-18T19:21:27.394Z,38.37
2022-12-18T19:23:52.933Z,38.15
2022-12-18T19:26:27.689Z,38.31
2022-12-18T19:28:53.950Z,38.42
2022-12-18T19:31:24.507Z,38.27
2022-12-18T19:33:51.759Z,38.15
2022-12-18T19:36:21.874Z,38.39
2022-12-18T19:38:47.977Z,38.42
2022-12-18T19:41:14.000Z,38.37
2022-12-18T19:43:40.406Z,38.26
2022-12-18T19:46:06.437Z,38.34
2022-12-18T19:48:32.514Z,38.46
2022-12-18T19:50:58.055Z,38.18
2022-12-18T19:53:23.624Z,38.52
2022-12-18T19:55:49.307Z,38.44
2022-12-18T19:58:15.787Z,38.15
2022-12-18T20:00:41.330Z,38.42
2022-12-18T20:03:18.249Z,38.29
2022-12-18T20:05:48.979Z,38.44
2022-12-18T20:08:14.534Z,38.32
2022-12-18T20:10:40.112Z,38.40
2022-12-18T20:13:05.804Z,38.47
2022-12-18T20:15:31.441Z,38.55
2022-12-18T20:17:57.219Z,38.33
2022-12-18T20:20:22.766Z,38.20
2022-12-18T20:22:48.568Z,38.49
2022-12-18T20:25:14.124Z,38.56
2022-12-18T20:27:39.712Z,38.35
2022-12-18T20:30:05.679Z,38.18
2022-12-18T20:32:36.775Z,38.27
2022-12-18T20:35:02.982Z,38.32
2022-12-18T20:37:29.685Z,38.35
2022-12-18T20:39:56.183Z,38.12
2022-12-18T20:42:22.003Z,38.43
2022-12-18T20:44:47.551Z,38.35
2022-12-18T20:47:13.093Z,38.34
2022-12-18T20:49:39.532Z,38.50
2022-12-18T20:52:08.823Z,38.41
2022-12-18T20:54:34.374Z,38.30
2022-12-18T20:56:59.911Z,38.27
2022-12-18T20:59:25.520Z,38.41
2022-12-18T21:01:51.458Z,38.44
2022-12-18T21:04:18.433Z,38.19
2022-12-18T21:06:50.780Z,38.44
2022-12-18T21:09:17.859Z,38.44
2022-12-18T21:12:03.309Z,38.08
2022-12-18T21:14:30.154Z,38.27
2022-12-18T21:16:56.274Z,38.24
2022-12-18T21:19:22.565Z,38.47
2022-12-18T21:21:48.302Z,38.28
2022-12-18T21:24:13.930Z,38.30
2022-12-18T21:26:45.501Z,38.35
2022-12-18T21:29:13.123Z,38.23
2022-12-18T21:31:38.678Z,38.39
2022-12-18T21:34:04.607Z,38.20
2022-12-18T21:36:30.615Z,38.33
2022-12-18T21:38:56.502Z,38.42
2022-12-18T21:41:42.589Z,38.52
2022-12-18T21:44:09.883Z,38.32
2022-12-18T21:46:37.537Z,38.33
2022-12-18T21:49:03.639Z,38.47
2022-12-18T21:51:29.409Z,38.28
2022-12-18T21:53:54.951Z,38.37
2022-12-18T21:56:20.506Z,38.36
2022-12-18T21:58:56.667Z,38.36
2022-12-18T22:01:22.791Z,38.36
2022-12-18T22:03:48.458Z,38.30
2022-12-18T22:06:14.019Z,38.33
2022-12-18T22:08:43.626Z,38.38
2022-12-18T22:11:10.134Z,38.37
2022-12-18T22:13:35.743Z,38.43
2022-12-18T22:16:01.425Z,38.51
2022-12-18T22:18:27.027Z,38.50
2022-12-18T22:21:00.213Z,38.54
2022-12-18T22:23:25.770Z,38.26
2022-12-18T22:25:51.482Z,38.44
2022-12-18T22:28:36.935Z,38.34
2022-12-18T22:31:02.547Z,38.39
2022-12-18T22:33:28.126Z,38.37
2022-12-18T22:35:53.670Z,38.44
2022-12-18T22:38:19.231Z,38.54
2022-12-18T22:40:44.782Z,38.55
2022-12-18T22:43:10.337Z,38.49
2022-12-18T22:45:35.882Z,38.52
2022-12-18T22:48:04.453Z,38.54
2022-12-18T22:50:30.018Z,38.30
2022-12-18T22:52:55.567Z,38.47
2022-12-18T22:55:21.113Z,38.47
2022-12-18T22:57:48.824Z,38.58
2022-12-18T23:00:14.846Z,38.48
2022-12-18T23:02:42.542Z,38.52
2022-12-18T23:05:08.234Z,38.40
2022-12-18T23:07:33.785Z,38.38
2022-12-18T23:10:01.056Z,38.48
2022-12-18T23:12:26.879Z,38.35
2022-12-18T23:14:52.633Z,38.38
2022-12-18T23:17:18.190Z,38.29
2022-12-18T23:19:48.746Z,38.40
2022-12-18T23:22:14.682Z,38.31
2022-12-18T23:24:40.231Z,38.47
2022-12-18T23:27:07.320Z,38.50
2022-12-18T23:29:37.179Z,38.54
2022-12-18T23:32:02.731Z,38.33
2022-12-18T23:34:28.275Z,38.35
2022-12-18T23:36:56.246Z,38.56
2022-12-18T23:39:29.705Z,38.43
2022-12-18T23:41:56.572Z,38.21
2022-12-18T23:44:22.118Z,38.35
2022-12-18T23:46:47.724Z,38.26
2022-12-18T23:49:13.286Z,38.37
2022-12-18T23:51:38.821Z,38.28
2022-12-18T23:54:05.114Z,38.41
2022-12-18T23:56:30.803Z,38.39
2022-12-18T23:58:56.371Z,38.55
